sensor_id;sensor_type;location;lat;lon;timestamp;P1;durP1;ratioP1;P2;durP2;ratioP2
9541;SDS011;4809;48.224;8.572;2022-09-27T00:00:32;0.60;;;0.60;;
9541;SDS011;4809;48.224;8.572;2022-09-27T00:02:57;1.55;;;0.70;;
9541;SDS011;4809;48.224;8.572;2022-09-27T00:05:23;0.60;;;0.52;;
9541;SDS011;4809;48.224;8.572;2022-09-27T00:07:49;1.08;;;0.60;;
9541;SDS011;4809;48.224;8.572;2022-09-27T00:10:15;0.50;;;0.50;;
9541;SDS011;4809;48.224;8.572;2022-09-27T00:12:41;0.93;;;0.70;;
9541;SDS011;4809;48.224;8.572;2022-09-27T00:15:07;0.50;;;0.50;;
9541;SDS011;4809;48.224;8.572;2022-09-27T00:17:34;0.50;;;0.50;;
9541;SDS011;4809;48.224;8.572;2022-09-27T00:20:00;0.70;;;0.55;;
9541;SDS011;4809;48.224;8.572;2022-09-27T00:22:27;0.40;;;0.40;;
9541;SDS011;4809;48.224;8.572;2022-09-27T00:24:53;0.30;;;0.30;;
9541;SDS011;4809;48.224;8.572;2022-09-27T00:27:19;0.50;;;0.40;;
9541;SDS011;4809;48.224;8.572;2022-09-27T00:29:45;0.88;;;0.40;;
9541;SDS011;4809;48.224;8.572;2022-09-27T00:32:12;0.60;;;0.60;;
9541;SDS011;4809;48.224;8.572;2022-09-27T00:34:38;0.55;;;0.50;;
9541;SDS011;4809;48.224;8.572;2022-09-27T00:37:05;0.40;;;0.40;;
9541;SDS011;4809;48.224;8.572;2022-09-27T00:39:31;0.88;;;0.60;;
9541;SDS011;4809;48.224;8.572;2022-09-27T00:41:57;0.85;;;0.50;;
9541;SDS011;4809;48.224;8.572;2022-09-27T00:52:40;1.02;;;0.50;;
9541;SDS011;4809;48.224;8.572;2022-09-27T00:55:15;0.60;;;0.50;;
9541;SDS011;4809;48.224;8.572;2022-09-27T00:57:47;0.63;;;0.50;;
9541;SDS011;4809;48.224;8.572;2022-09-27T01:00:15;0.50;;;0.50;;
9541;SDS011;4809;48.224;8.572;2022-09-27T01:02:43;0.38;;;0.38;;
9541;SDS011;4809;48.224;8.572;2022-09-27T01:05:11;0.40;;;0.40;;
9541;SDS011;4809;48.224;8.572;2022-09-27T01:07:40;0.73;;;0.40;;
9541;SDS011;4809;48.224;8.572;2022-09-27T01:10:06;0.93;;;0.50;;
9541;SDS011;4809;48.224;8.572;2022-09-27T01:18:16;1.35;;;0.47;;
9541;SDS011;4809;48.224;8.572;2022-09-27T01:31:58;0.80;;;0.60;;
9541;SDS011;4809;48.224;8.572;2022-09-27T01:34:41;0.50;;;0.50;;
9541;SDS011;4809;48.224;8.572;2022-09-27T01:45:53;0.52;;;0.40;;
9541;SDS011;4809;48.224;8.572;2022-09-27T01:48:27;0.32;;;0.32;;
9541;SDS011;4809;48.224;8.572;2022-09-27T01:51:11;0.40;;;0.40;;
9541;SDS011;4809;48.224;8.572;2022-09-27T01:54:01;0.43;;;0.32;;
9541;SDS011;4809;48.224;8.572;2022-09-27T01:56:30;1.05;;;0.47;;
9541;SDS011;4809;48.224;8.572;2022-09-27T01:59:02;0.98;;;0.45;;
9541;SDS011;4809;48.224;8.572;2022-09-27T02:01:34;0.50;;;0.45;;
9541;SDS011;4809;48.224;8.572;2022-09-27T02:04:02;1.45;;;0.50;;
9541;SDS011;4809;48.224;8.572;2022-09-27T02:06:35;0.47;;;0.47;;
9541;SDS011;4809;48.224;8.572;2022-09-27T02:09:09;0.65;;;0.50;;
9541;SDS011;4809;48.224;8.572;2022-09-27T02:11:41;0.90;;;0.82;;
9541;SDS011;4809;48.224;8.572;2022-09-27T02:14:19;1.63;;;0.80;;
9541;SDS011;4809;48.224;8.572;2022-09-27T02:16:50;1.20;;;0.77;;
9541;SDS011;4809;48.224;8.572;2022-09-27T02:22:17;1.58;;;0.90;;
9541;SDS011;4809;48.224;8.572;2022-09-27T02:30:19;1.15;;;0.70;;
9541;SDS011;4809;48.224;8.572;2022-09-27T02:32:45;1.27;;;0.98;;
9541;SDS011;4809;48.224;8.572;2022-09-27T02:37:39;0.80;;;0.80;;
9541;SDS011;4809;48.224;8.572;2022-09-27T02:40:05;1.35;;;1.02;;
9541;SDS011;4809;48.224;8.572;2022-09-27T02:42:31;1.40;;;1.08;;
9541;SDS011;4809;48.224;8.572;2022-09-27T02:44:58;1.23;;;0.98;;
9541;SDS011;4809;48.224;8.572;2022-09-27T02:47:44;2.13;;;1.17;;
9541;SDS011;4809;48.224;8.572;2022-09-27T02:56:50;1.80;;;1.38;;
9541;SDS011;4809;48.224;8.572;2022-09-27T03:02:20;1.73;;;1.60;;
9541;SDS011;4809;48.224;8.572;2022-09-27T03:05:00;2.40;;;2.03;;
9541;SDS011;4809;48.224;8.572;2022-09-27T03:07:30;2.60;;;1.75;;
9541;SDS011;4809;48.224;8.572;2022-09-27T03:09:56;4.30;;;2.17;;
9541;SDS011;4809;48.224;8.572;2022-09-27T03:12:22;4.40;;;2.13;;
9541;SDS011;4809;48.224;8.572;2022-09-27T03:14:56;4.45;;;2.42;;
9541;SDS011;4809;48.224;8.572;2022-09-27T03:17:24;3.28;;;1.98;;
9541;SDS011;4809;48.224;8.572;2022-09-27T03:19:49;3.60;;;2.00;;
9541;SDS011;4809;48.224;8.572;2022-09-27T03:22:15;4.20;;;2.08;;
9541;SDS011;4809;48.224;8.572;2022-09-27T03:24:41;4.60;;;2.10;;
9541;SDS011;4809;48.224;8.572;2022-09-27T03:27:10;5.07;;;2.47;;
9541;SDS011;4809;48.224;8.572;2022-09-27T03:29:36;4.45;;;2.33;;
9541;SDS011;4809;48.224;8.572;2022-09-27T03:32:02;6.10;;;2.50;;
9541;SDS011;4809;48.224;8.572;2022-09-27T03:34:28;6.35;;;2.40;;
9541;SDS011;4809;48.224;8.572;2022-09-27T03:36:54;6.38;;;2.30;;
9541;SDS011;4809;48.224;8.572;2022-09-27T03:39:20;4.78;;;2.70;;
9541;SDS011;4809;48.224;8.572;2022-09-27T03:41:46;5.22;;;2.47;;
9541;SDS011;4809;48.224;8.572;2022-09-27T03:44:12;6.63;;;2.90;;
9541;SDS011;4809;48.224;8.572;2022-09-27T03:46:37;5.07;;;2.60;;
9541;SDS011;4809;48.224;8.572;2022-09-27T03:49:03;5.70;;;2.45;;
9541;SDS011;4809;48.224;8.572;2022-09-27T03:51:29;7.53;;;2.67;;
9541;SDS011;4809;48.224;8.572;2022-09-27T03:53:55;6.53;;;2.80;;
9541;SDS011;4809;48.224;8.572;2022-09-27T03:56:21;6.70;;;2.63;;
9541;SDS011;4809;48.224;8.572;2022-09-27T03:58:47;5.33;;;2.80;;
9541;SDS011;4809;48.224;8.572;2022-09-27T04:01:13;6.75;;;3.10;;
9541;SDS011;4809;48.224;8.572;2022-09-27T04:03:39;7.15;;;2.60;;
9541;SDS011;4809;48.224;8.572;2022-09-27T04:06:04;4.97;;;2.57;;
9541;SDS011;4809;48.224;8.572;2022-09-27T04:08:30;5.07;;;2.45;;
9541;SDS011;4809;48.224;8.572;2022-09-27T04:10:56;5.57;;;2.40;;
9541;SDS011;4809;48.224;8.572;2022-09-27T04:13:22;4.73;;;2.47;;
9541;SDS011;4809;48.224;8.572;2022-09-27T04:15:48;4.57;;;2.20;;
9541;SDS011;4809;48.224;8.572;2022-09-27T04:18:14;6.97;;;2.40;;
9541;SDS011;4809;48.224;8.572;2022-09-27T04:20:40;5.03;;;2.40;;
9541;SDS011;4809;48.224;8.572;2022-09-27T04:23:05;3.65;;;2.20;;
9541;SDS011;4809;48.224;8.572;2022-09-27T04:25:31;4.07;;;2.30;;
9541;SDS011;4809;48.224;8.572;2022-09-27T04:27:57;5.25;;;2.20;;
9541;SDS011;4809;48.224;8.572;2022-09-27T04:30:25;1.67;;;1.42;;
9541;SDS011;4809;48.224;8.572;2022-09-27T04:32:52;2.88;;;1.48;;
9541;SDS011;4809;48.224;8.572;2022-09-27T04:35:17;1.40;;;1.07;;
9541;SDS011;4809;48.224;8.572;2022-09-27T04:38:02;3.20;;;1.67;;
9541;SDS011;4809;48.224;8.572;2022-09-27T04:40:28;2.33;;;1.80;;
9541;SDS011;4809;48.224;8.572;2022-09-27T04:42:54;2.67;;;2.10;;
9541;SDS011;4809;48.224;8.572;2022-09-27T04:45:20;6.20;;;3.57;;
9541;SDS011;4809;48.224;8.572;2022-09-27T04:47:47;1.80;;;1.70;;
9541;SDS011;4809;48.224;8.572;2022-09-27T04:50:14;3.67;;;3.37;;
9541;SDS011;4809;48.224;8.572;2022-09-27T04:52:41;6.30;;;4.93;;
9541;SDS011;4809;48.224;8.572;2022-09-27T04:55:08;5.33;;;4.33;;
9541;SDS011;4809;48.224;8.572;2022-09-27T04:57:34;6.07;;;3.93;;
9541;SDS011;4809;48.224;8.572;2022-09-27T05:00:00;3.90;;;2.40;;
9541;SDS011;4809;48.224;8.572;2022-09-27T05:02:27;3.53;;;2.17;;
9541;SDS011;4809;48.224;8.572;2022-09-27T05:04:53;1.03;;;0.90;;
9541;SDS011;4809;48.224;8.572;2022-09-27T05:07:22;1.33;;;0.97;;
9541;SDS011;4809;48.224;8.572;2022-09-27T05:09:48;0.97;;;0.97;;
9541;SDS011;4809;48.224;8.572;2022-09-27T05:12:13;0.87;;;0.73;;
9541;SDS011;4809;48.224;8.572;2022-09-27T05:14:39;1.60;;;1.00;;
9541;SDS011;4809;48.224;8.572;2022-09-27T05:17:05;1.50;;;1.40;;
9541;SDS011;4809;48.224;8.572;2022-09-27T05:19:34;2.97;;;2.00;;
9541;SDS011;4809;48.224;8.572;2022-09-27T05:22:00;3.90;;;2.33;;
9541;SDS011;4809;48.224;8.572;2022-09-27T05:24:26;1.77;;;1.30;;
9541;SDS011;4809;48.224;8.572;2022-09-27T05:26:55;2.97;;;1.77;;
9541;SDS011;4809;48.224;8.572;2022-09-27T05:29:21;1.93;;;1.10;;
9541;SDS011;4809;48.224;8.572;2022-09-27T05:31:47;3.10;;;1.40;;
9541;SDS011;4809;48.224;8.572;2022-09-27T05:34:13;1.47;;;1.20;;
9541;SDS011;4809;48.224;8.572;2022-09-27T05:36:39;2.17;;;1.20;;
9541;SDS011;4809;48.224;8.572;2022-09-27T05:39:05;1.38;;;1.33;;
9541;SDS011;4809;48.224;8.572;2022-09-27T05:41:31;2.87;;;2.10;;
9541;SDS011;4809;48.224;8.572;2022-09-27T05:43:57;2.40;;;1.80;;
9541;SDS011;4809;48.224;8.572;2022-09-27T05:46:23;1.30;;;1.20;;
9541;SDS011;4809;48.224;8.572;2022-09-27T05:48:49;2.17;;;1.30;;
9541;SDS011;4809;48.224;8.572;2022-09-27T05:51:15;3.10;;;2.50;;
9541;SDS011;4809;48.224;8.572;2022-09-27T05:53:41;2.47;;;1.40;;
9541;SDS011;4809;48.224;8.572;2022-09-27T05:56:06;1.57;;;1.47;;
9541;SDS011;4809;48.224;8.572;2022-09-27T05:58:32;1.27;;;1.23;;
9541;SDS011;4809;48.224;8.572;2022-09-27T06:00:58;1.90;;;1.80;;
9541;SDS011;4809;48.224;8.572;2022-09-27T06:03:24;1.70;;;1.60;;
9541;SDS011;4809;48.224;8.572;2022-09-27T06:05:50;1.57;;;1.47;;
9541;SDS011;4809;48.224;8.572;2022-09-27T06:08:16;1.77;;;1.50;;
9541;SDS011;4809;48.224;8.572;2022-09-27T06:10:42;1.90;;;1.70;;
9541;SDS011;4809;48.224;8.572;2022-09-27T06:13:10;1.50;;;1.40;;
9541;SDS011;4809;48.224;8.572;2022-09-27T06:15:40;1.83;;;1.70;;
9541;SDS011;4809;48.224;8.572;2022-09-27T06:18:11;2.17;;;1.70;;
9541;SDS011;4809;48.224;8.572;2022-09-27T06:20:40;2.33;;;2.10;;
9541;SDS011;4809;48.224;8.572;2022-09-27T06:23:11;2.00;;;1.90;;
9541;SDS011;4809;48.224;8.572;2022-09-27T06:25:42;2.40;;;2.20;;
9541;SDS011;4809;48.224;8.572;2022-09-27T06:28:08;1.83;;;1.50;;
9541;SDS011;4809;48.224;8.572;2022-09-27T06:30:37;1.97;;;1.63;;
9541;SDS011;4809;48.224;8.572;2022-09-27T06:33:04;1.40;;;1.30;;
9541;SDS011;4809;48.224;8.572;2022-09-27T06:35:31;1.70;;;1.60;;
9541;SDS011;4809;48.224;8.572;2022-09-27T06:38:01;1.50;;;1.40;;
9541;SDS011;4809;48.224;8.572;2022-09-27T06:40:29;2.00;;;1.60;;
9541;SDS011;4809;48.224;8.572;2022-09-27T06:43:00;2.13;;;2.03;;
9541;SDS011;4809;48.224;8.572;2022-09-27T06:45:32;1.80;;;1.70;;
9541;SDS011;4809;48.224;8.572;2022-09-27T06:47:59;2.17;;;1.70;;
9541;SDS011;4809;48.224;8.572;2022-09-27T06:50:27;1.40;;;1.30;;
9541;SDS011;4809;48.224;8.572;2022-09-27T06:52:54;1.83;;;1.50;;
9541;SDS011;4809;48.224;8.572;2022-09-27T06:55:20;1.60;;;1.50;;
9541;SDS011;4809;48.224;8.572;2022-09-27T06:57:45;1.85;;;1.60;;
9541;SDS011;4809;48.224;8.572;2022-09-27T07:00:34;1.73;;;1.60;;
9541;SDS011;4809;48.224;8.572;2022-09-27T07:03:00;1.90;;;1.80;;
9541;SDS011;4809;48.224;8.572;2022-09-27T07:05:26;1.97;;;1.60;;
9541;SDS011;4809;48.224;8.572;2022-09-27T07:07:53;2.47;;;1.92;;
9541;SDS011;4809;48.224;8.572;2022-09-27T07:10:21;2.33;;;1.75;;
9541;SDS011;4809;48.224;8.572;2022-09-27T07:12:52;1.77;;;1.60;;
9541;SDS011;4809;48.224;8.572;2022-09-27T07:15:18;2.40;;;1.80;;
9541;SDS011;4809;48.224;8.572;2022-09-27T07:17:56;2.63;;;2.13;;
9541;SDS011;4809;48.224;8.572;2022-09-27T07:20:23;4.32;;;3.45;;
9541;SDS011;4809;48.224;8.572;2022-09-27T07:22:53;2.40;;;1.92;;
9541;SDS011;4809;48.224;8.572;2022-09-27T07:25:19;2.40;;;2.00;;
9541;SDS011;4809;48.224;8.572;2022-09-27T07:27:45;2.65;;;2.20;;
9541;SDS011;4809;48.224;8.572;2022-09-27T07:30:11;3.70;;;2.50;;
9541;SDS011;4809;48.224;8.572;2022-09-27T07:32:38;3.20;;;2.25;;
9541;SDS011;4809;48.224;8.572;2022-09-27T07:35:05;4.00;;;2.40;;
9541;SDS011;4809;48.224;8.572;2022-09-27T07:37:33;3.92;;;2.35;;
9541;SDS011;4809;48.224;8.572;2022-09-27T07:40:00;2.40;;;1.88;;
9541;SDS011;4809;48.224;8.572;2022-09-27T07:42:26;2.40;;;2.10;;
9541;SDS011;4809;48.224;8.572;2022-09-27T07:44:53;2.90;;;2.42;;
9541;SDS011;4809;48.224;8.572;2022-09-27T07:47:22;2.33;;;2.15;;
9541;SDS011;4809;48.224;8.572;2022-09-27T07:49:49;3.30;;;2.47;;
9541;SDS011;4809;48.224;8.572;2022-09-27T07:52:17;5.32;;;3.05;;
9541;SDS011;4809;48.224;8.572;2022-09-27T07:54:43;2.70;;;2.20;;
9541;SDS011;4809;48.224;8.572;2022-09-27T07:57:10;2.47;;;2.15;;
9541;SDS011;4809;48.224;8.572;2022-09-27T07:59:36;6.07;;;4.53;;
9541;SDS011;4809;48.224;8.572;2022-09-27T08:02:02;3.28;;;2.40;;
9541;SDS011;4809;48.224;8.572;2022-09-27T08:04:28;2.45;;;2.22;;
9541;SDS011;4809;48.224;8.572;2022-09-27T08:06:53;2.15;;;1.70;;
9541;SDS011;4809;48.224;8.572;2022-09-27T08:09:19;3.05;;;1.80;;
9541;SDS011;4809;48.224;8.572;2022-09-27T08:11:45;1.92;;;1.48;;
9541;SDS011;4809;48.224;8.572;2022-09-27T08:14:12;1.23;;;1.10;;
9541;SDS011;4809;48.224;8.572;2022-09-27T08:16:39;1.63;;;1.48;;
9541;SDS011;4809;48.224;8.572;2022-09-27T08:19:05;2.40;;;1.27;;
9541;SDS011;4809;48.224;8.572;2022-09-27T08:21:31;1.73;;;1.30;;
9541;SDS011;4809;48.224;8.572;2022-09-27T08:23:57;1.33;;;1.23;;
9541;SDS011;4809;48.224;8.572;2022-09-27T08:26:23;2.10;;;1.67;;
9541;SDS011;4809;48.224;8.572;2022-09-27T08:28:51;1.77;;;1.50;;
9541;SDS011;4809;48.224;8.572;2022-09-27T08:31:17;3.37;;;1.63;;
9541;SDS011;4809;48.224;8.572;2022-09-27T08:33:43;2.50;;;1.47;;
9541;SDS011;4809;48.224;8.572;2022-09-27T08:36:14;1.90;;;1.45;;
9541;SDS011;4809;48.224;8.572;2022-09-27T08:38:39;2.50;;;1.40;;
9541;SDS011;4809;48.224;8.572;2022-09-27T08:43:51;1.70;;;1.60;;
9541;SDS011;4809;48.224;8.572;2022-09-27T08:49:11;2.38;;;1.77;;
9541;SDS011;4809;48.224;8.572;2022-09-27T08:51:47;1.83;;;1.73;;
9541;SDS011;4809;48.224;8.572;2022-09-27T08:54:18;2.30;;;1.88;;
9541;SDS011;4809;48.224;8.572;2022-09-27T08:56:47;1.70;;;1.60;;
9541;SDS011;4809;48.224;8.572;2022-09-27T08:59:14;1.95;;;1.73;;
9541;SDS011;4809;48.224;8.572;2022-09-27T09:01:49;2.93;;;1.87;;
9541;SDS011;4809;48.224;8.572;2022-09-27T09:04:19;2.38;;;1.63;;
9541;SDS011;4809;48.224;8.572;2022-09-27T09:26:37;55.95;;;37.33;;
9541;SDS011;4809;48.224;8.572;2022-09-27T09:32:01;44.25;;;29.95;;
9541;SDS011;4809;48.224;8.572;2022-09-27T09:37:16;49.83;;;31.02;;
9541;SDS011;4809;48.224;8.572;2022-09-27T09:39:58;17.38;;;11.25;;
9541;SDS011;4809;48.224;8.572;2022-09-27T09:42:49;33.03;;;25.30;;
9541;SDS011;4809;48.224;8.572;2022-09-27T09:45:22;4.47;;;3.50;;
9541;SDS011;4809;48.224;8.572;2022-09-27T09:50:42;3.72;;;3.35;;
9541;SDS011;4809;48.224;8.572;2022-09-27T09:53:18;9.32;;;8.43;;
9541;SDS011;4809;48.224;8.572;2022-09-27T09:56:11;4.80;;;4.35;;
9541;SDS011;4809;48.224;8.572;2022-09-27T09:58:47;6.30;;;5.80;;
9541;SDS011;4809;48.224;8.572;2022-09-27T10:01:22;3.88;;;3.47;;
9541;SDS011;4809;48.224;8.572;2022-09-27T10:03:52;5.43;;;4.15;;
9541;SDS011;4809;48.224;8.572;2022-09-27T10:06:20;4.57;;;4.07;;
9541;SDS011;4809;48.224;8.572;2022-09-27T10:08:47;2.50;;;2.30;;
9541;SDS011;4809;48.224;8.572;2022-09-27T10:11:18;4.60;;;4.03;;
9541;SDS011;4809;48.224;8.572;2022-09-27T10:13:49;9.65;;;8.00;;
9541;SDS011;4809;48.224;8.572;2022-09-27T10:16:16;9.82;;;7.47;;
9541;SDS011;4809;48.224;8.572;2022-09-27T10:18:43;8.35;;;7.15;;
9541;SDS011;4809;48.224;8.572;2022-09-27T10:21:19;4.95;;;3.65;;
9541;SDS011;4809;48.224;8.572;2022-09-27T10:24:00;3.22;;;2.60;;
9541;SDS011;4809;48.224;8.572;2022-09-27T10:26:31;2.45;;;1.20;;
9541;SDS011;4809;48.224;8.572;2022-09-27T10:28:58;2.33;;;1.27;;
9541;SDS011;4809;48.224;8.572;2022-09-27T10:31:48;2.15;;;2.00;;
9541;SDS011;4809;48.224;8.572;2022-09-27T10:34:17;1.63;;;1.20;;
9541;SDS011;4809;48.224;8.572;2022-09-27T10:39:30;1.48;;;0.85;;
9541;SDS011;4809;48.224;8.572;2022-09-27T10:41:56;1.23;;;0.75;;
9541;SDS011;4809;48.224;8.572;2022-09-27T10:44:26;1.45;;;1.10;;
9541;SDS011;4809;48.224;8.572;2022-09-27T10:46:54;1.55;;;1.45;;
9541;SDS011;4809;48.224;8.572;2022-09-27T10:49:34;1.10;;;1.00;;
9541;SDS011;4809;48.224;8.572;2022-09-27T10:52:12;0.98;;;0.82;;
9541;SDS011;4809;48.224;8.572;2022-09-27T10:54:42;1.15;;;0.90;;
9541;SDS011;4809;48.224;8.572;2022-09-27T10:57:25;0.95;;;0.80;;
9541;SDS011;4809;48.224;8.572;2022-09-27T11:00:27;1.80;;;0.70;;
9541;SDS011;4809;48.224;8.572;2022-09-27T11:02:50;0.93;;;0.90;;
9541;SDS011;4809;48.224;8.572;2022-09-27T11:07:53;2.22;;;1.00;;
9541;SDS011;4809;48.224;8.572;2022-09-27T11:32:20;1.25;;;0.73;;
9541;SDS011;4809;48.224;8.572;2022-09-27T11:37:55;2.13;;;1.00;;
9541;SDS011;4809;48.224;8.572;2022-09-27T11:54:04;2.53;;;1.02;;
9541;SDS011;4809;48.224;8.572;2022-09-27T12:02:33;0.95;;;0.70;;
9541;SDS011;4809;48.224;8.572;2022-09-27T12:08:08;0.93;;;0.85;;
9541;SDS011;4809;48.224;8.572;2022-09-27T12:11:19;1.55;;;0.82;;
9541;SDS011;4809;48.224;8.572;2022-09-27T12:13:53;0.80;;;0.80;;
9541;SDS011;4809;48.224;8.572;2022-09-27T12:16:23;1.00;;;0.80;;
9541;SDS011;4809;48.224;8.572;2022-09-27T12:18:51;0.80;;;0.80;;
9541;SDS011;4809;48.224;8.572;2022-09-27T12:21:18;1.00;;;0.93;;
9541;SDS011;4809;48.224;8.572;2022-09-27T12:23:54;0.70;;;0.70;;
9541;SDS011;4809;48.224;8.572;2022-09-27T12:29:36;1.05;;;0.85;;
9541;SDS011;4809;48.224;8.572;2022-09-27T12:32:35;1.00;;;0.70;;
9541;SDS011;4809;48.224;8.572;2022-09-27T12:40:24;1.70;;;1.17;;
9541;SDS011;4809;48.224;8.572;2022-09-27T12:51:16;1.42;;;1.10;;
9541;SDS011;4809;48.224;8.572;2022-09-27T12:56:42;0.40;;;0.40;;
9541;SDS011;4809;48.224;8.572;2022-09-27T13:05:16;0.50;;;0.50;;
9541;SDS011;4809;48.224;8.572;2022-09-27T13:13:34;0.60;;;0.50;;
9541;SDS011;4809;48.224;8.572;2022-09-27T13:16:01;0.50;;;0.50;;
9541;SDS011;4809;48.224;8.572;2022-09-27T13:20:53;0.77;;;0.77;;
9541;SDS011;4809;48.224;8.572;2022-09-27T13:30:56;1.13;;;0.90;;
9541;SDS011;4809;48.224;8.572;2022-09-27T13:33:30;1.02;;;0.73;;
9541;SDS011;4809;48.224;8.572;2022-09-27T13:39:34;0.65;;;0.63;;
9541;SDS011;4809;48.224;8.572;2022-09-27T13:49:58;1.70;;;0.90;;
9541;SDS011;4809;48.224;8.572;2022-09-27T13:52:54;0.70;;;0.70;;
9541;SDS011;4809;48.224;8.572;2022-09-27T13:55:45;0.70;;;0.70;;
9541;SDS011;4809;48.224;8.572;2022-09-27T14:01:04;1.48;;;0.88;;
9541;SDS011;4809;48.224;8.572;2022-09-27T14:03:50;0.82;;;0.70;;
9541;SDS011;4809;48.224;8.572;2022-09-27T14:06:19;0.60;;;0.60;;
9541;SDS011;4809;48.224;8.572;2022-09-27T14:08:52;3.30;;;2.08;;
9541;SDS011;4809;48.224;8.572;2022-09-27T14:11:27;0.85;;;0.85;;
9541;SDS011;4809;48.224;8.572;2022-09-27T14:13:56;0.90;;;0.90;;
9541;SDS011;4809;48.224;8.572;2022-09-27T14:16:23;2.15;;;1.20;;
9541;SDS011;4809;48.224;8.572;2022-09-27T14:18:54;6.00;;;3.67;;
9541;SDS011;4809;48.224;8.572;2022-09-27T14:21:26;2.38;;;1.67;;
9541;SDS011;4809;48.224;8.572;2022-09-27T14:26:45;0.50;;;0.50;;
9541;SDS011;4809;48.224;8.572;2022-09-27T14:29:18;0.60;;;0.60;;
9541;SDS011;4809;48.224;8.572;2022-09-27T14:31:46;0.60;;;0.60;;
9541;SDS011;4809;48.224;8.572;2022-09-27T14:34:13;0.73;;;0.73;;
9541;SDS011;4809;48.224;8.572;2022-09-27T14:36:39;0.40;;;0.40;;
9541;SDS011;4809;48.224;8.572;2022-09-27T14:39:30;0.60;;;0.60;;
9541;SDS011;4809;48.224;8.572;2022-09-27T14:41:59;1.73;;;1.27;;
9541;SDS011;4809;48.224;8.572;2022-09-27T14:44:26;0.73;;;0.73;;
9541;SDS011;4809;48.224;8.572;2022-09-27T14:49:33;0.75;;;0.70;;
9541;SDS011;4809;48.224;8.572;2022-09-27T14:51:59;1.08;;;0.70;;
9541;SDS011;4809;48.224;8.572;2022-09-27T14:54:26;0.70;;;0.70;;
9541;SDS011;4809;48.224;8.572;2022-09-27T14:56:54;0.95;;;0.60;;
9541;SDS011;4809;48.224;8.572;2022-09-27T14:59:32;0.88;;;0.60;;
9541;SDS011;4809;48.224;8.572;2022-09-27T15:02:01;0.50;;;0.50;;
9541;SDS011;4809;48.224;8.572;2022-09-27T15:04:41;0.68;;;0.68;;
9541;SDS011;4809;48.224;8.572;2022-09-27T15:07:10;0.65;;;0.65;;
9541;SDS011;4809;48.224;8.572;2022-09-27T15:09:37;0.68;;;0.68;;
9541;SDS011;4809;48.224;8.572;2022-09-27T15:12:04;1.65;;;0.80;;
9541;SDS011;4809;48.224;8.572;2022-09-27T15:14:32;1.33;;;0.93;;
9541;SDS011;4809;48.224;8.572;2022-09-27T15:17:01;1.45;;;1.20;;
9541;SDS011;4809;48.224;8.572;2022-09-27T15:19:30;1.10;;;0.90;;
9541;SDS011;4809;48.224;8.572;2022-09-27T15:22:43;1.17;;;0.90;;
9541;SDS011;4809;48.224;8.572;2022-09-27T15:25:10;0.88;;;0.88;;
9541;SDS011;4809;48.224;8.572;2022-09-27T15:27:51;0.80;;;0.80;;
9541;SDS011;4809;48.224;8.572;2022-09-27T15:30:38;1.27;;;0.70;;
9541;SDS011;4809;48.224;8.572;2022-09-27T15:33:18;1.63;;;0.80;;
9541;SDS011;4809;48.224;8.572;2022-09-27T15:35:51;1.10;;;0.90;;
9541;SDS011;4809;48.224;8.572;2022-09-27T15:46:04;0.85;;;0.85;;
9541;SDS011;4809;48.224;8.572;2022-09-27T15:48:46;0.80;;;0.80;;
9541;SDS011;4809;48.224;8.572;2022-09-27T15:51:53;2.60;;;2.40;;
9541;SDS011;4809;48.224;8.572;2022-09-27T15:54:20;2.30;;;2.20;;
9541;SDS011;4809;48.224;8.572;2022-09-27T15:56:48;3.08;;;2.78;;
9541;SDS011;4809;48.224;8.572;2022-09-27T15:59:19;3.60;;;3.30;;
9541;SDS011;4809;48.224;8.572;2022-09-27T16:01:45;1.50;;;1.40;;
9541;SDS011;4809;48.224;8.572;2022-09-27T16:04:12;1.45;;;1.38;;
9541;SDS011;4809;48.224;8.572;2022-09-27T16:06:38;2.15;;;1.50;;
9541;SDS011;4809;48.224;8.572;2022-09-27T16:09:08;1.52;;;1.42;;
9541;SDS011;4809;48.224;8.572;2022-09-27T16:11:40;2.10;;;1.90;;
9541;SDS011;4809;48.224;8.572;2022-09-27T16:14:06;1.70;;;1.60;;
9541;SDS011;4809;48.224;8.572;2022-09-27T16:16:31;1.85;;;1.40;;
9541;SDS011;4809;48.224;8.572;2022-09-27T16:18:57;0.90;;;0.90;;
9541;SDS011;4809;48.224;8.572;2022-09-27T16:21:23;2.05;;;1.00;;
9541;SDS011;4809;48.224;8.572;2022-09-27T16:23:49;0.85;;;0.63;;
9541;SDS011;4809;48.224;8.572;2022-09-27T16:26:14;1.35;;;0.80;;
9541;SDS011;4809;48.224;8.572;2022-09-27T16:28:41;2.70;;;0.82;;
9541;SDS011;4809;48.224;8.572;2022-09-27T16:31:07;0.98;;;0.90;;
9541;SDS011;4809;48.224;8.572;2022-09-27T16:33:36;1.05;;;0.82;;
9541;SDS011;4809;48.224;8.572;2022-09-27T16:36:04;0.80;;;0.80;;
9541;SDS011;4809;48.224;8.572;2022-09-27T16:38:33;2.47;;;1.00;;
9541;SDS011;4809;48.224;8.572;2022-09-27T16:40:59;2.05;;;1.20;;
9541;SDS011;4809;48.224;8.572;2022-09-27T16:43:26;1.33;;;1.10;;
9541;SDS011;4809;48.224;8.572;2022-09-27T16:45:52;1.27;;;1.17;;
9541;SDS011;4809;48.224;8.572;2022-09-27T16:48:19;1.95;;;1.45;;
9541;SDS011;4809;48.224;8.572;2022-09-27T16:50:45;1.88;;;1.13;;
9541;SDS011;4809;48.224;8.572;2022-09-27T16:53:29;0.75;;;0.70;;
9541;SDS011;4809;48.224;8.572;2022-09-27T16:55:58;1.00;;;1.00;;
9541;SDS011;4809;48.224;8.572;2022-09-27T16:58:24;1.27;;;0.80;;
9541;SDS011;4809;48.224;8.572;2022-09-27T17:00:50;0.95;;;0.95;;
9541;SDS011;4809;48.224;8.572;2022-09-27T17:03:16;1.20;;;1.10;;
9541;SDS011;4809;48.224;8.572;2022-09-27T17:05:42;8.15;;;4.55;;
9541;SDS011;4809;48.224;8.572;2022-09-27T17:08:08;3.70;;;2.90;;
9541;SDS011;4809;48.224;8.572;2022-09-27T17:10:34;2.88;;;1.95;;
9541;SDS011;4809;48.224;8.572;2022-09-27T17:13:02;1.67;;;1.50;;
9541;SDS011;4809;48.224;8.572;2022-09-27T17:15:28;3.78;;;2.22;;
9541;SDS011;4809;48.224;8.572;2022-09-27T17:17:54;2.47;;;1.50;;
9541;SDS011;4809;48.224;8.572;2022-09-27T17:20:19;2.33;;;1.60;;
9541;SDS011;4809;48.224;8.572;2022-09-27T17:22:45;2.83;;;1.65;;
9541;SDS011;4809;48.224;8.572;2022-09-27T17:25:10;2.30;;;2.10;;
9541;SDS011;4809;48.224;8.572;2022-09-27T17:27:36;2.85;;;1.50;;
9541;SDS011;4809;48.224;8.572;2022-09-27T17:30:02;0.95;;;0.95;;
9541;SDS011;4809;48.224;8.572;2022-09-27T17:32:28;1.20;;;1.20;;
9541;SDS011;4809;48.224;8.572;2022-09-27T17:34:54;1.40;;;1.30;;
9541;SDS011;4809;48.224;8.572;2022-09-27T17:37:21;1.25;;;1.13;;
9541;SDS011;4809;48.224;8.572;2022-09-27T17:39:47;1.33;;;0.80;;
9541;SDS011;4809;48.224;8.572;2022-09-27T17:42:12;0.63;;;0.63;;
9541;SDS011;4809;48.224;8.572;2022-09-27T17:44:38;0.43;;;0.43;;
9541;SDS011;4809;48.224;8.572;2022-09-27T17:47:04;0.70;;;0.70;;
9541;SDS011;4809;48.224;8.572;2022-09-27T17:49:48;0.40;;;0.40;;
9541;SDS011;4809;48.224;8.572;2022-09-27T17:52:32;0.63;;;0.63;;
9541;SDS011;4809;48.224;8.572;2022-09-27T17:54:58;0.70;;;0.70;;
9541;SDS011;4809;48.224;8.572;2022-09-27T17:57:24;0.70;;;0.70;;
9541;SDS011;4809;48.224;8.572;2022-09-27T17:59:50;0.60;;;0.60;;
9541;SDS011;4809;48.224;8.572;2022-09-27T18:02:17;0.63;;;0.63;;
9541;SDS011;4809;48.224;8.572;2022-09-27T18:04:44;0.55;;;0.55;;
9541;SDS011;4809;48.224;8.572;2022-09-27T18:07:09;2.25;;;1.23;;
9541;SDS011;4809;48.224;8.572;2022-09-27T18:09:37;0.70;;;0.70;;
9541;SDS011;4809;48.224;8.572;2022-09-27T18:12:02;1.02;;;1.00;;
9541;SDS011;4809;48.224;8.572;2022-09-27T18:14:29;1.48;;;0.80;;
9541;SDS011;4809;48.224;8.572;2022-09-27T18:16:55;0.60;;;0.60;;
9541;SDS011;4809;48.224;8.572;2022-09-27T18:19:21;2.13;;;0.98;;
9541;SDS011;4809;48.224;8.572;2022-09-27T18:21:48;0.70;;;0.70;;
9541;SDS011;4809;48.224;8.572;2022-09-27T18:24:14;0.70;;;0.70;;
9541;SDS011;4809;48.224;8.572;2022-09-27T18:26:41;0.80;;;0.80;;
9541;SDS011;4809;48.224;8.572;2022-09-27T18:29:12;0.60;;;0.60;;
9541;SDS011;4809;48.224;8.572;2022-09-27T18:31:39;0.82;;;0.70;;
9541;SDS011;4809;48.224;8.572;2022-09-27T18:34:06;0.70;;;0.63;;
9541;SDS011;4809;48.224;8.572;2022-09-27T18:36:32;0.52;;;0.52;;
9541;SDS011;4809;48.224;8.572;2022-09-27T18:38:59;0.55;;;0.50;;
9541;SDS011;4809;48.224;8.572;2022-09-27T18:41:27;0.60;;;0.50;;
9541;SDS011;4809;48.224;8.572;2022-09-27T18:44:03;0.50;;;0.50;;
9541;SDS011;4809;48.224;8.572;2022-09-27T18:46:30;0.40;;;0.40;;
9541;SDS011;4809;48.224;8.572;2022-09-27T18:49:00;0.63;;;0.63;;
9541;SDS011;4809;48.224;8.572;2022-09-27T18:51:31;0.45;;;0.45;;
9541;SDS011;4809;48.224;8.572;2022-09-27T18:53:58;1.30;;;0.60;;
9541;SDS011;4809;48.224;8.572;2022-09-27T18:56:25;0.90;;;0.90;;
9541;SDS011;4809;48.224;8.572;2022-09-27T18:58:51;1.65;;;0.80;;